Time;durP1;ratioP1;P1;durP2;ratioP2;P2;SDS_P1;SDS_P2;PMS_P1;PMS_P2;Temp;Humidity;BMP_temperature;BMP_pressure;BME280_temperature;BME280_humidity;BME280_pressure;Samples;Min_cycle;Max_cycle;Signal;HPM_P1;HPM_P2
2022/03/07 00:09:13;;;;;;;1.47;1.00;;;;;;;;;;21070184;28;20216;-70
2022/03/07 00:19:14;;;;;;;2.17;0.90;;;;;;;;;;21068588;28;20200;-70
2022/03/07 00:29:17;;;;;;;1.70;1.40;;;4.40;99.90;;;;;;21065857;28;20208;-70
2022/03/07 00:39:19;;;;;;;1.33;1.20;;;;;;;;;;21067949;28;20269;-69
2022/03/07 00:49:21;;;;;;;2.50;1.30;;;;;;;;;;21067512;28;20258;-70
2022/03/07 00:59:22;;;;;;;4.50;1.30;;;;;;;;;;21036358;28;20258;-71
2022/03/07 01:09:24;;;;;;;1.83;1.13;;;;;;;;;;21065876;28;20209;-69
2022/03/07 01:19:27;;;;;;;5.00;1.33;;;;;;;;;;21056505;28;20756;-69
2022/03/07 01:29:29;;;;;;;1.13;0.90;;;;;;;;;;21079490;28;20246;-70
2022/03/07 01:39:31;;;;;;;3.33;1.60;;;;;;;;;;21080554;28;20204;-70
2022/03/07 01:49:33;;;;;;;2.33;1.73;;;;;;;;;;21080779;28;20609;-69
2022/03/07 01:59:37;;;;;;;1.17;0.97;;;;;;;;;;21079766;28;20200;-69
2022/03/07 02:09:39;;;;;;;1.30;0.93;;;;;;;;;;21059985;28;20217;-70
2022/03/07 02:19:42;;;;;;;2.03;1.60;;;;;;;;;;21076967;28;20200;-70
2022/03/07 02:29:45;;;;;;;1.10;0.90;;;;;;;;;;20984913;22;20230;-67
2022/03/07 02:39:53;;;;;;;1.57;1.10;;;;;;;;;;20904994;28;20221;-66
2022/03/07 02:49:56;;;;;;;0.50;0.50;;;;;;;;;;20877294;28;20704;-66
2022/03/07 02:59:58;;;;;;;1.13;1.00;;;;;;;;;;20860603;28;20734;-66
2022/03/07 03:10:02;;;;;;;0.80;0.80;;;;;;;;;;20876041;28;20240;-66
2022/03/07 03:20:04;;;;;;;1.40;1.10;;;;;;;;;;20875795;28;20611;-65
2022/03/07 03:30:09;;;;;;;1.70;1.00;;;3.60;99.90;;;;;;20907380;28;20217;-67
2022/03/07 03:40:12;;;;;;;0.70;0.70;;;3.50;99.90;;;;;;20890171;28;20588;-66
2022/03/07 03:50:14;;;;;;;4.60;0.67;;;3.40;99.90;;;;;;20873446;28;20263;-68
2022/03/07 04:00:18;;;;;;;1.13;0.60;;;3.40;99.90;;;;;;20872887;28;20633;-66
2022/03/07 04:10:20;;;;;;;0.57;0.57;;;;;;;;;;20872401;28;20226;-66
2022/03/07 04:20:21;;;;;;;0.93;0.77;;;;;;;;;;20872085;28;20214;-66
2022/03/07 04:30:23;;;;;;;0.50;0.50;;;;;;;;;;20854559;28;20275;-68
2022/03/07 04:40:25;;;;;;;0.37;0.37;;;;;;;;;;20871296;28;20236;-68
2022/03/07 04:50:27;;;;;;;2.57;0.70;;;;;;;;;;20854775;28;20291;-67
2022/03/07 05:00:29;;;;;;;0.87;0.70;;;;;;;;;;20886115;28;20574;-67
2022/03/07 05:10:32;;;;;;;0.70;0.60;;;2.90;99.90;;;;;;20918597;28;20229;-68
2022/03/07 05:20:34;;;;;;;0.87;0.87;;;;;;;;;;20884419;28;20271;-67
2022/03/07 05:30:35;;;;;;;1.70;0.87;;;;;;;;;;20883413;28;20217;-68
2022/03/07 05:40:38;;;;;;;0.97;0.80;;;;;;;;;;20882370;28;20570;-68
2022/03/07 05:50:41;;;;;;;1.07;0.87;;;;;;;;;;20896558;28;20244;-68
2022/03/07 06:00:43;;;;;;;0.80;0.80;;;;;;;;;;20865032;28;20210;-68
2022/03/07 06:10:45;;;;;;;0.83;0.60;;;;;;;;;;20912249;28;20584;-68
2022/03/07 06:20:47;;;;;;;1.33;1.00;;;;;;;;;;20880014;28;20351;-68
2022/03/07 06:30:49;;;;;;;2.07;1.40;;;;;;;;;;20895043;28;20217;-68
2022/03/07 06:40:51;;;;;;;1.03;0.97;;;2.60;99.90;;;;;;20877432;28;20218;-68
2022/03/07 06:50:54;;;;;;;0.80;0.70;;;;;;;;;;20893791;28;20230;-68
2022/03/07 07:00:56;;;;;;;0.57;0.57;;;;;;;;;;20876596;28;20206;-68
2022/03/07 07:10:58;;;;;;;1.27;1.07;;;;;;;;;;20891895;28;20210;-68
2022/03/07 07:20:59;;;;;;;0.70;0.60;;;;;;;;;;20873765;28;20283;-67
2022/03/07 07:31:01;;;;;;;1.30;0.83;;;;;;;;;;20874686;28;20218;-68
2022/03/07 07:41:03;;;;;;;1.40;1.10;;;;;;;;;;20872609;28;20275;-67
2022/03/07 07:51:05;;;;;;;1.10;0.90;;;;;;;;;;20889434;28;20213;-68
2022/03/07 08:01:07;;;;;;;0.80;0.80;;;;;;;;;;20856092;28;20271;-68
2022/03/07 08:11:08;;;;;;;1.33;1.07;;;;;;;;;;20872252;28;20221;-68
2022/03/07 08:21:10;;;;;;;1.43;1.10;;;;;;;;;;20855365;28;20201;-68
2022/03/07 08:31:12;;;;;;;2.20;1.03;;;;;;;;;;21040013;22;20232;-63
2022/03/07 08:41:14;;;;;;;1.67;1.03;;;;;;;;;;21070562;28;20253;-64
2022/03/07 08:51:16;;;;;;;0.93;0.70;;;;;;;;;;21036412;28;20221;-63
2022/03/07 09:01:20;;;;;;;3.33;2.33;;;;;;;;;;21069581;28;20196;-63
2022/03/07 09:11:21;;;;;;;2.10;1.20;;;5.50;99.90;;;;;;21035167;28;20250;-63
2022/03/07 09:21:23;;;;;;;1.73;1.13;;;;;;;;;;21051071;28;20281;-63
2022/03/07 09:31:25;;;;;;;1.20;1.10;;;;;;;;;;21065576;28;20209;-62
2022/03/07 09:41:27;;;;;;;1.87;1.20;;;;;;;;;;21035309;28;20216;-63
2022/03/07 09:51:29;;;;;;;3.03;1.60;;;;;;;;;;21026907;28;20220;-63
2022/03/07 10:01:31;;;;;;;1.57;1.30;;;;;;;;;;21041457;28;20679;-63
2022/03/07 10:11:34;;;;;;;1.40;1.07;;;;;;;;;;21038452;28;20216;-63
2022/03/07 10:21:35;;;;;;;2.37;1.63;;;6.90;99.90;;;;;;21040134;28;20212;-63
2022/03/07 10:31:39;;;;;;;1.27;0.80;;;;;;;;;;21052003;28;20251;-63
2022/03/07 10:41:43;;;;;;;1.00;0.80;;;6.50;99.90;;;;;;21012135;28;20899;-63
2022/03/07 10:51:54;;;;;;;2.33;1.50;;;6.90;99.90;;;;;;20975772;28;20224;-63
2022/03/07 11:02:00;;;;;;;1.90;1.60;;;;;;;;;;21000822;28;20664;-64
2022/03/07 11:12:03;;;;;;;1.33;0.87;;;;;;;;;;20937488;28;20752;-64
2022/03/07 11:22:06;;;;;;;2.00;1.40;;;;;;;;;;21007815;28;20370;-64
2022/03/07 11:32:09;;;;;;;3.20;0.97;;;;;;;;;;21002778;28;20281;-64
2022/03/07 11:42:16;;;;;;;1.67;1.13;;;;;;;;;;21005147;28;20204;-64
2022/03/07 11:52:18;;;;;;;0.90;0.53;;;;;;;;;;21040185;28;20216;-64
2022/03/07 12:02:20;;;;;;;1.80;1.40;;;;;;;;;;21041554;28;20733;-64
2022/03/07 12:12:22;;;;;;;1.80;1.47;;;;;;;;;;21009294;28;20213;-64
2022/03/07 12:22:25;;;;;;;2.90;1.77;;;;;;;;;;21005414;28;20286;-64
2022/03/07 12:32:27;;;;;;;2.40;1.63;;;;;;;;;;21011680;28;20212;-64
2022/03/07 12:42:31;;;;;;;1.10;1.00;;;;;;;;;;20999719;28;20209;-63
2022/03/07 12:52:35;;;;;;;2.30;1.40;;;8.10;98.80;;;;;;21010589;28;20220;-64
2022/03/07 13:02:41;;;;;;;1.63;0.90;;;8.40;99.90;;;;;;21009416;28;20270;-64
2022/03/07 13:12:43;;;;;;;1.00;0.77;;;;;;;;;;21017752;28;20570;-64
2022/03/07 13:22:45;;;;;;;2.00;1.30;;;;;;;;;;21035853;28;20274;-64
2022/03/07 13:32:46;;;;;;;2.03;1.47;;;8.50;97.60;;;;;;21035808;28;20293;-65
2022/03/07 13:42:49;;;;;;;2.40;1.67;;;;;;;;;;21025408;28;20213;-65
2022/03/07 13:53:01;;;;;;;1.80;1.30;;;;;;;;;;21054280;28;20221;-64
2022/03/07 14:03:06;;;;;;;2.87;1.50;;;8.40;99.90;;;;;;21046003;28;20212;-64
2022/03/07 14:13:08;;;;;;;1.57;0.90;;;;;;;;;;21046379;28;20220;-65
2022/03/07 14:23:13;;;;;;;1.83;1.20;;;5.00;99.90;;;;;;21057162;28;20281;-64
2022/03/07 14:33:15;;;;;;;1.37;1.00;;;;;;;;;;20669007;23;20278;-65
2022/03/07 14:43:17;;;;;;;5.63;1.10;;;;;;;;;;20617098;28;20234;-66
2022/03/07 14:53:19;;;;;;;1.50;1.03;;;;;;;;;;20671180;28;20258;-66
2022/03/07 15:03:21;;;;;;;1.13;0.87;;;;;;;;;;20665586;28;20281;-66
2022/03/07 15:13:24;;;;;;;2.50;0.80;;;;;;;;;;20633256;28;20235;-66
2022/03/07 15:23:25;;;;;;;2.03;1.27;;;;;;;;;;20613900;28;20261;-65
2022/03/07 15:33:27;;;;;;;4.03;1.50;;;;;;;;;;20602656;28;20220;-66
2022/03/07 15:43:29;;;;;;;4.03;1.17;;;;;;;;;;20601561;28;20763;-66
2022/03/07 15:53:31;;;;;;;1.40;1.10;;;6.50;99.90;;;;;;20616273;28;20227;-65
2022/03/07 16:03:34;;;;;;;1.70;1.07;;;;;;;;;;20609932;28;20215;-65
2022/03/07 16:13:37;;;;;;;1.60;1.07;;;;;;;;;;20622189;28;20334;-66
2022/03/07 16:23:39;;;;;;;1.37;0.67;;;;;;;;;;20880873;28;20262;-65
2022/03/07 16:33:43;;;;;;;1.67;1.00;;;;;;;;;;20920118;28;20281;-65
2022/03/07 16:43:46;;;;;;;1.50;1.10;;;;;;;;;;20626922;28;20646;-66
2022/03/07 16:53:50;;;;;;;1.43;1.20;;;;;;;;;;20575454;28;20600;-65
2022/03/07 17:03:52;;;;;;;1.87;1.50;;;6.10;99.90;;;;;;20606545;28;20752;-66
2022/03/07 17:13:57;;;;;;;1.67;1.17;;;;;;;;;;20608778;28;20232;-65
2022/03/07 17:23:59;;;;;;;1.83;1.70;;;5.90;99.90;;;;;;20611163;28;20275;-65
2022/03/07 17:34:01;;;;;;;2.40;1.60;;;;;;;;;;20628829;28;20232;-65
2022/03/07 17:44:04;;;;;;;2.30;1.57;;;;;;;;;;20635511;28;20205;-65
2022/03/07 17:54:06;;;;;;;6.47;4.47;;;5.60;99.90;;;;;;20620893;28;20752;-65
2022/03/07 18:04:10;;;;;;;4.80;3.20;;;5.70;99.90;;;;;;20621867;28;21021;-65
2022/03/07 18:14:14;;;;;;;2.27;1.20;;;;;;;;;;20631682;28;20224;-65
2022/03/07 18:24:16;;;;;;;5.50;4.23;;;;;;;;;;20609289;28;20296;-65
2022/03/07 18:34:28;;;;;;;2.53;2.10;;;;;;;;;;20626917;28;20236;-65
2022/03/07 18:44:59;;;;;;;9.50;2.27;;;;;;;;;;20665238;28;20564;-65
2022/03/07 18:55:01;;;;;;;5.73;3.43;;;;;;;;;;20623298;28;20736;-66
2022/03/07 19:05:04;;;;;;;1.93;1.60;;;;;;;;;;20620482;28;20223;-66
2022/03/07 19:15:07;;;;;;;12.37;7.47;;;;;;;;;;20625941;28;20215;-65
2022/03/07 19:25:10;;;;;;;7.63;2.97;;;5.00;99.90;;;;;;20624876;28;20580;-66
2022/03/07 19:35:12;;;;;;;1.97;1.70;;;;;;;;;;20617180;28;20212;-66
2022/03/07 19:45:14;;;;;;;2.70;1.60;;;;;;;;;;20604349;28;20297;-67
2022/03/07 19:55:16;;;;;;;2.60;1.80;;;;;;;;;;20806958;28;20265;-67
2022/03/07 20:05:18;;;;;;;2.63;1.87;;;;;;;;;;20828753;28;20231;-65
2022/03/07 20:15:20;;;;;;;2.13;1.57;;;;;;;;;;20822187;28;20241;-67
2022/03/07 20:25:22;;;;;;;2.43;2.03;;;;;;;;;;20829156;28;20208;-67
2022/03/07 20:35:24;;;;;;;2.60;1.70;;;;;;;;;;20887194;22;20231;-64
2022/03/07 20:45:26;;;;;;;2.53;1.87;;;;;;;;;;21046864;28;20238;-64
2022/03/07 20:55:28;;;;;;;1.90;1.43;;;;;;;;;;21035838;28;20204;-63
2022/03/07 21:05:30;;;;;;;2.30;1.80;;;;;;;;;;21059344;28;20220;-63
2022/03/07 21:15:32;;;;;;;2.83;2.23;;;;;;;;;;21059976;28;20270;-63
2022/03/07 21:25:34;;;;;;;3.00;1.83;;;;;;;;;;21072126;28;20213;-64
2022/03/07 21:35:36;;;;;;;2.33;1.90;;;;;;;;;;21062617;28;20224;-64
2022/03/07 21:45:38;;;;;;;3.10;2.23;;;;;;;;;;21062397;28;20225;-64
2022/03/07 21:55:40;;;;;;;3.50;2.20;;;;;;;;;;21045467;28;20220;-64
2022/03/07 22:05:42;;;;;;;2.47;1.70;;;;;;;;;;21062005;28;20721;-64
2022/03/07 22:15:45;;;;;;;5.73;3.07;;;;;;;;;;21045262;28;20212;-64
2022/03/07 22:25:47;;;;;;;2.27;1.40;;;;;;;;;;21043484;28;20205;-64
2022/03/07 22:35:49;;;;;;;1.60;1.20;;;3.60;99.90;;;;;;21057144;28;20232;-64
2022/03/07 22:45:51;;;;;;;1.27;1.10;;;;;;;;;;21040871;28;20220;-64
2022/03/07 22:55:53;;;;;;;1.60;1.07;;;;;;;;;;21073907;28;20216;-64
2022/03/07 23:16:16;;;;;;;2.37;1.53;;;;;;;;;;21056001;28;20580;-64
2022/03/07 23:26:19;;;;;;;2.03;1.53;;;3.40;99.90;;;;;;21053853;28;20224;-64
2022/03/07 23:36:21;;;;;;;1.93;1.10;;;;;;;;;;21037809;28;20216;-64
2022/03/07 23:46:23;;;;;;;1.57;1.13;;;;;;;;;;21035895;28;20220;-64
2022/03/07 23:56:25;;;;;;;1.00;0.93;;;;;;;;;;21017992;28;20269;-64
